Latest METARs, TAFs and NOTAMs for LIML


---------------------------------------------------------------------------
	(OBSERVATIONS)
LIML 202050Z 03003KT 360V060 CAVOK 05/01 Q1023 NOSIG=
LIML 202020Z 02003KT CAVOK 06/00 Q1023 NOSIG=
LIML 201950Z VRB01KT CAVOK 06/M00 Q1023 NOSIG=
LIML 201920Z NIL=
LIML 201850Z NIL=
LIML 201820Z 18002KT CAVOK 09/00 Q1023 NOSIG=
---------------------------------------------------------------------------
	(FC)
Sorry, FC For LIML Not Found
---------------------------------------------------------------------------
	(TERMINAL AREA FORECAST)
LIML 201700Z 2018/2118 VRB05KT CAVOK
    TEMPO 2102/2106 3000 BR=
---------------------------------------------------------------------------
	(NOTAMS)


LIML A0356/20 NEW OBSTACLE ERECTED CRANE PENETRATING INNER HORIZONTAL
    SURFACE PSN COORD (WGS-84): 452629.5N 0091424.3E MAX ELEV
    AGL 45.6M/149.6FT MAX ELEV AMSL 150.9M/495.1FT ROTATING JIB
    49.1M REF AOC TYPE B NR ML 4/2. 20 JAN 09:22 2020 UNTIL 18
    APR 23:59 2020 ESTIMATED. CREATED: 20 JAN 09:22 2020

LIML A0380/20 AIRCRAFT STANDS 4 AND 5 CLOSED DUE TO WIP. RMK:
    ICAO SIGNALS PROVIDED. REF AIP AD2 LIML 2-7. 20 JAN 23:40
    2020 UNTIL 19 APR 22:00 2020. CREATED: 20 JAN 23:40 2020

LIML A0381/20 RUNWAY 17/35 CLOSED AND USED AS PARKING AREA REF
    AIP AD2 LIML 2-1. 20 JAN 23:44 2020 UNTIL 19 APR 22:00 2020.
    CREATED: 20 JAN 23:44 2020

LIML A0385/20 LANDING AND TKOF NOT ALLOWED TO VFR FIXED WINGS
    ACFT. TFC NOT AFFECTED: MIL, STATE, HUMANITARIAN AND HOSPITAL
    FLIGHT REF AIP AD2 LIML 1-1. DAILY 0501-0900 1101-1400 AND
    1601-2200, 21 JAN 05:43 2020 UNTIL 19 APR 22:00 2020. CREATED:
    21 JAN 05:43 2020

LIML A0713/20 NEW OBSTACLES ERECTED FOUR CRANE PENETRATING INNER
    HORIZONTAL SURFACE PSN COORD (WGS-84): 452603.6N 0091424.6E
    MAX ELEV AGL 75.3M/247.0FT MAX ELEV AMSL 175.4M/575.5FT ROTATING
    JIB 60.0M DAY ICAO SIGNAL PROVIDED 452601.4N 0091423.2E MAX
    ELEV AGL 61.6M/202.1FT MAX ELEV AMSL 161.7M/530.5FT ROTATING
    JIB 50.0M DAY ICAO SIGNAL PROVIDED 452608.4N 0091421.5E MAX
    ELEV AGL 61.6M/202.1FT MAX ELEV AMSL 163.7M/537.1FT ROTATING
    JIB 60.0M DAY ICAO SIGNAL PROVIDED 452610.5N 0091421.0E MAX
    ELEV AGL 75.3M/247.4FT MAX ELEV AMSL 177.3M/581.7FT ROTATING
    JIB 60.0M DAY ICAO SIGNAL PROVIDED REF AOC TYPE B NR ML 4/2.
    14 FEB 00:00 2020 UNTIL 13 MAY 23:59 2020 ESTIMATED. CREATED:
    04 FEB 13:23 2020

LIML A1028/20 REF AIP AD 2 LIML 1-7 'RADIO NAVIGATION AND LANDING
    AIDS' TYPE OF AID 'VDF' ID 'LINATE GONIO HOMER' COMPLETELY
    WITHDRAWN. 19 FEB 15:14 2020 UNTIL PERM. CREATED: 19 FEB
    15:14 2020

LIML A1029/20 LINATE DVOR/DME 'LIN' FREQ 112.25MHZ CH 59Y AVBL
    AS FOLLOW: -DME OPR -VOR UNSERVICEABLE DUE TO MAINT REF AIP
    AD 2 LIML 1-7. 19 FEB 15:16 2020 UNTIL 24 FEB 15:00 2020.
    CREATED: 19 FEB 15:16 2020

LIML A4840/19 REF AIP AD 2 LIML 3-1 AND AOC TYPE B NR ML 4/2
    NEW OBSTACLE ERECTED CRANE PENETRATING TAKE OFF FLIGHT PATH
    AREA RWY36, TAKE OF CLIMB SURFACE RWY36 AND INNER HORIZONTAL
    SURFACE PSN 5008.6M AFTER THR36 AND 231.4M RIGHT RCL IN TKOF
    DIRECTION - COORD (WGS-84): 452845.9N 0091634.8E MAX ELEV
    AGL 42.5M/139.4FT MAX ELEV AMSL 158.2M/519.0FT ROTATING JIB
    60M ICAO SGL PROVIDED. 18 JUL 00:00 2019 UNTIL PERM. CREATED:
    01 JUL 09:50 2019

LIML A8961/19 NEW OBSTACLE ERECTED TWO CRANES PENETRATING INNER
    HORIZONTAL SURFACE - PSN COORD (WGS-84): 452738.6N 0091652.8E
    MAX ELEV AGL 39.5M/129.6FT MAX ELEV AMSL 148.8M/488.2FT ROTATING
    JIB 40M ICAO SIGNAL PROVIDED - PSN COORD (WGS-84): 452737.2N
    0091650.0E MAX ELEV AGL 30.4M/99.7FT MAX ELEV AMSL 140.7M/461.6FT
    ROTATING JIB 60M ICAO SIGNAL PROVIDED REF AOC TYPE B NR ML
    4/2. 16 DEC 11:06 2019 UNTIL 14 MAR 23:59 2020 ESTIMATED.
    CREATED: 16 DEC 11:06 2019

---------------------------------------------------------------------------